createdAt,value
2023-04-19T00:00:09.644Z,30.88
2023-04-19T00:02:38.473Z,32.30
2023-04-19T00:05:07.553Z,37.40
2023-04-19T00:07:36.232Z,35.50
2023-04-19T00:10:07.103Z,27.60
2023-04-19T00:12:35.119Z,30.05
2023-04-19T00:15:03.137Z,30.02
2023-04-19T00:17:31.158Z,34.30
2023-04-19T00:19:59.238Z,31.38
2023-04-19T00:22:27.245Z,27.83
2023-04-19T00:24:55.519Z,27.42
2023-04-19T00:27:24.903Z,31.27
2023-04-19T00:29:52.934Z,32.22
2023-04-19T00:32:20.968Z,34.90
2023-04-19T00:34:48.978Z,32.75
2023-04-19T00:37:17.141Z,28.70
2023-04-19T00:39:45.158Z,27.33
2023-04-19T00:42:13.158Z,33.03
2023-04-19T00:44:43.374Z,28.10
2023-04-19T00:47:11.473Z,30.20
2023-04-19T00:49:39.646Z,29.00
2023-04-19T00:52:08.428Z,30.13
2023-04-19T00:54:36.795Z,30.95
2023-04-19T00:57:04.994Z,37.30
2023-04-19T00:59:33.063Z,29.48
2023-04-19T01:02:02.639Z,29.95
2023-04-19T01:04:30.943Z,27.52
2023-04-19T01:06:59.079Z,31.05
2023-04-19T01:09:27.082Z,30.55
2023-04-19T01:11:55.316Z,29.63
2023-04-19T01:14:23.320Z,34.60
2023-04-19T01:16:51.724Z,30.25
2023-04-19T01:19:21.359Z,27.70
2023-04-19T01:21:50.072Z,30.20
2023-04-19T01:24:19.443Z,27.98
2023-04-19T01:26:47.962Z,30.63
2023-04-19T01:29:15.974Z,29.73
2023-04-19T01:31:44.050Z,31.63
2023-04-19T01:34:12.119Z,28.50
2023-04-19T01:36:40.138Z,31.40
2023-04-19T01:39:08.587Z,36.22
2023-04-19T01:41:37.938Z,29.25
2023-04-19T01:44:06.204Z,30.83
2023-04-19T01:46:34.204Z,31.73
2023-04-19T01:49:02.202Z,30.00
2023-04-19T01:51:30.179Z,30.83
2023-04-19T01:53:58.237Z,25.95
2023-04-19T01:56:26.589Z,29.45
2023-04-19T01:58:56.149Z,33.55
2023-04-19T02:01:24.226Z,29.17
2023-04-19T02:03:52.440Z,31.05
2023-04-19T02:06:20.549Z,32.38
2023-04-19T02:08:48.568Z,29.50
2023-04-19T02:11:16.583Z,27.98
2023-04-19T02:13:44.673Z,27.02
2023-04-19T02:16:14.069Z,27.45
2023-04-19T02:18:42.146Z,31.88
2023-04-19T02:21:10.931Z,29.20
2023-04-19T02:23:39.007Z,31.65
2023-04-19T02:26:07.146Z,30.20
2023-04-19T02:28:35.277Z,31.38
2023-04-19T02:31:06.155Z,24.67
2023-04-19T02:33:35.569Z,27.70
2023-04-19T02:36:03.710Z,23.58
2023-04-19T02:38:31.739Z,23.05
2023-04-19T02:41:00.784Z,25.42
2023-04-19T02:43:28.797Z,22.00
2023-04-19T02:45:56.882Z,18.13
2023-04-19T02:48:24.944Z,21.20
2023-04-19T02:50:54.384Z,24.27
2023-04-19T02:53:22.541Z,20.83
2023-04-19T02:55:50.672Z,16.20
2023-04-19T02:58:18.865Z,22.98
2023-04-19T03:00:46.857Z,15.88
2023-04-19T03:03:14.913Z,17.58
2023-04-19T03:05:42.948Z,15.27
2023-04-19T03:08:12.310Z,13.57
2023-04-19T03:10:40.306Z,16.98
2023-04-19T03:13:08.326Z,11.07
2023-04-19T03:15:36.332Z,15.63
2023-04-19T03:18:04.655Z,12.55
2023-04-19T03:20:32.666Z,12.75
2023-04-19T03:23:00.692Z,12.95
2023-04-19T03:25:30.066Z,11.05
2023-04-19T03:27:58.657Z,14.52
2023-04-19T03:30:26.725Z,11.98
2023-04-19T03:32:54.831Z,9.70
2023-04-19T03:35:26.146Z,13.15
2023-04-19T03:37:54.196Z,14.75
2023-04-19T03:40:22.612Z,12.77
2023-04-19T03:42:51.997Z,11.15
2023-04-19T03:45:20.330Z,10.60
2023-04-19T03:47:48.404Z,13.00
2023-04-19T03:50:16.436Z,10.70
2023-04-19T03:52:44.429Z,14.25
2023-04-19T03:55:14.027Z,13.50
2023-04-19T03:57:42.068Z,10.85
2023-04-19T04:00:13.141Z,10.23
2023-04-19T04:02:41.437Z,11.00
2023-04-19T04:05:09.940Z,11.65
2023-04-19T04:07:38.061Z,9.43
2023-04-19T04:10:07.045Z,12.27
2023-04-19T04:12:35.047Z,17.33
2023-04-19T04:15:03.306Z,14.90
2023-04-19T04:17:33.837Z,11.60
2023-04-19T04:20:01.911Z,8.85
2023-04-19T04:22:29.909Z,12.05
2023-04-19T04:24:58.201Z,12.18
2023-04-19T04:27:26.274Z,11.82
2023-04-19T04:29:54.548Z,14.63
2023-04-19T04:32:23.505Z,10.60
2023-04-19T04:34:53.231Z,9.70
2023-04-19T04:37:21.211Z,11.13
2023-04-19T04:39:49.216Z,9.88
2023-04-19T04:42:17.601Z,8.93
2023-04-19T04:44:47.331Z,12.77
2023-04-19T04:47:15.512Z,10.48
2023-04-19T04:49:43.509Z,11.75
2023-04-19T04:52:12.924Z,11.27
2023-04-19T04:54:41.159Z,12.88
2023-04-19T04:57:10.184Z,10.32
2023-04-19T04:59:38.174Z,12.02
2023-04-19T05:02:06.207Z,10.32
2023-04-19T05:04:34.877Z,10.77
2023-04-19T05:07:02.940Z,9.48
2023-04-19T05:09:32.340Z,10.23
2023-04-19T05:12:00.350Z,12.98
2023-04-19T05:14:28.369Z,10.55
2023-04-19T05:16:56.355Z,11.98
2023-04-19T05:19:24.394Z,13.43
2023-04-19T05:21:52.388Z,12.55
2023-04-19T05:24:20.453Z,12.60
2023-04-19T05:26:49.812Z,11.43
2023-04-19T05:29:18.658Z,14.75
2023-04-19T05:31:46.868Z,10.75
2023-04-19T05:34:15.212Z,13.00
2023-04-19T05:36:43.304Z,14.55
2023-04-19T05:39:11.323Z,13.55
2023-04-19T05:41:39.300Z,11.20
2023-04-19T05:44:08.660Z,13.60
2023-04-19T05:46:37.346Z,13.05
2023-04-19T05:49:05.455Z,11.00
2023-04-19T05:51:33.451Z,9.27
2023-04-19T05:54:01.924Z,13.93
2023-04-19T05:56:30.188Z,13.07
2023-04-19T05:58:58.375Z,11.18
2023-04-19T06:01:27.808Z,11.23
2023-04-19T06:03:56.077Z,10.93
2023-04-19T06:06:24.804Z,11.15
2023-04-19T06:08:54.869Z,11.88
2023-04-19T06:11:31.446Z,15.35
2023-04-19T06:14:03.303Z,11.00
2023-04-19T06:16:33.013Z,14.45
2023-04-19T06:19:01.137Z,9.90
2023-04-19T06:21:31.425Z,10.07
2023-04-19T06:23:59.470Z,13.73
2023-04-19T06:26:27.824Z,8.88
2023-04-19T06:28:55.937Z,11.73
2023-04-19T06:31:24.150Z,12.75
2023-04-19T06:33:53.593Z,11.02
2023-04-19T06:36:21.613Z,9.50
2023-04-19T06:38:50.184Z,9.93
2023-04-19T06:41:18.452Z,10.63
2023-04-19T06:43:46.540Z,13.77
2023-04-19T06:46:18.071Z,10.05
2023-04-19T06:48:46.110Z,11.95
2023-04-19T06:51:15.638Z,10.38
2023-04-19T06:53:44.731Z,10.45
2023-04-19T06:56:13.500Z,4.47
2023-04-19T06:58:41.544Z,8.70
2023-04-19T07:01:09.576Z,13.40
2023-04-19T07:03:37.761Z,7.60
2023-04-19T07:06:06.680Z,7.35
2023-04-19T07:08:48.873Z,7.00
2023-04-19T07:13:46.618Z,10.70
2023-04-19T07:16:14.942Z,6.97
2023-04-19T07:18:43.918Z,14.00
2023-04-19T07:21:12.022Z,11.07
2023-04-19T07:23:41.456Z,11.88
2023-04-19T07:26:09.510Z,7.65
2023-04-19T07:28:37.519Z,9.82
2023-04-19T07:31:05.661Z,13.40
2023-04-19T07:33:33.873Z,5.78
2023-04-19T07:36:01.906Z,6.35
2023-04-19T07:38:30.042Z,6.47
2023-04-19T07:40:59.433Z,9.15
2023-04-19T07:43:27.762Z,9.55
2023-04-19T07:45:56.159Z,7.25
2023-04-19T07:48:24.246Z,13.25
2023-04-19T07:50:52.261Z,7.00
2023-04-19T07:53:20.599Z,6.00
2023-04-19T07:55:48.669Z,4.30
2023-04-19T07:58:18.143Z,6.25
2023-04-19T08:00:46.151Z,6.63
2023-04-19T08:03:14.435Z,8.95
2023-04-19T08:05:42.649Z,7.97
2023-04-19T08:08:10.750Z,11.60
2023-04-19T08:10:38.715Z,10.82
2023-04-19T08:13:07.051Z,8.60
2023-04-19T08:16:20.185Z,8.63
2023-04-19T08:18:24.697Z,6.32
2023-04-19T08:20:52.781Z,10.27
2023-04-19T08:23:26.045Z,7.35
2023-04-19T08:25:57.659Z,8.02
2023-04-19T08:28:25.687Z,8.63
2023-04-19T08:30:56.014Z,8.43
2023-04-19T08:33:24.035Z,9.20
2023-04-19T08:35:52.023Z,8.30
2023-04-19T08:38:20.318Z,7.75
2023-04-19T08:40:51.511Z,14.10
2023-04-19T08:43:20.738Z,6.05
2023-04-19T08:45:49.504Z,7.32
2023-04-19T08:48:19.718Z,5.60
2023-04-19T08:51:03.561Z,6.85
2023-04-19T08:53:34.428Z,5.00
2023-04-19T08:58:51.846Z,5.88
2023-04-19T09:01:34.570Z,6.82
2023-04-19T09:04:17.184Z,5.15
2023-04-19T09:06:55.087Z,3.45
2023-04-19T09:09:35.458Z,5.43
2023-04-19T09:12:17.805Z,3.85
2023-04-19T09:15:00.713Z,8.02
2023-04-19T09:17:30.399Z,3.42
2023-04-19T09:20:00.318Z,2.63
2023-04-19T09:22:28.701Z,3.80
2023-04-19T09:27:30.436Z,3.75
2023-04-19T09:30:00.094Z,2.65
2023-04-19T09:32:29.247Z,5.28
2023-04-19T09:34:59.907Z,1.60
2023-04-19T09:39:59.327Z,5.40
2023-04-19T09:43:05.350Z,2.60
2023-04-19T09:45:44.103Z,5.30
2023-04-19T09:48:13.469Z,3.00
2023-04-19T09:51:00.818Z,3.50
2023-04-19T09:53:34.924Z,15.68
2023-04-19T09:56:04.227Z,8.70
2023-04-19T10:01:14.311Z,4.55
2023-04-19T10:03:46.225Z,7.85
2023-04-19T10:08:51.267Z,4.22
2023-04-19T10:11:21.824Z,4.97
2023-04-19T10:13:50.485Z,6.22
2023-04-19T10:16:20.077Z,4.28
2023-04-19T10:18:50.116Z,3.53
2023-04-19T10:21:21.039Z,4.85
2023-04-19T10:23:49.535Z,3.88
2023-04-19T10:26:17.538Z,4.00
2023-04-19T10:28:45.554Z,4.95
2023-04-19T10:31:14.296Z,4.50
2023-04-19T10:33:43.256Z,2.85
2023-04-19T10:36:12.406Z,11.55
2023-04-19T10:38:43.467Z,8.43
2023-04-19T10:41:17.372Z,6.25
2023-04-19T10:43:46.901Z,3.80
2023-04-19T10:46:16.858Z,4.63
2023-04-19T10:48:55.399Z,7.20
2023-04-19T10:51:25.334Z,5.05
2023-04-19T10:53:59.438Z,7.35
2023-04-19T10:56:58.481Z,6.03
2023-04-19T10:59:26.495Z,7.38
2023-04-19T11:01:57.274Z,5.43
2023-04-19T11:05:00.599Z,4.45
2023-04-19T11:07:29.404Z,6.57
2023-04-19T11:09:58.855Z,8.35
2023-04-19T11:12:26.884Z,6.68
2023-04-19T11:14:57.496Z,12.18
2023-04-19T11:17:27.946Z,6.80
2023-04-19T11:19:57.179Z,4.13
2023-04-19T11:22:32.743Z,14.77
2023-04-19T11:25:08.855Z,3.78
2023-04-19T11:27:37.406Z,8.18
2023-04-19T11:30:06.886Z,12.52
2023-04-19T11:32:35.361Z,6.20
2023-04-19T11:35:08.841Z,5.88
2023-04-19T11:37:38.011Z,6.43
2023-04-19T11:40:09.877Z,4.82
2023-04-19T11:42:38.358Z,4.70
2023-04-19T11:45:15.857Z,3.85
2023-04-19T11:47:51.459Z,7.38
2023-04-19T11:50:36.017Z,7.15
2023-04-19T11:53:15.545Z,2.80
2023-04-19T11:55:48.966Z,9.95
2023-04-19T11:58:29.091Z,7.38
2023-04-19T12:00:58.418Z,6.32
2023-04-19T12:03:27.292Z,6.13
2023-04-19T12:05:57.204Z,11.15
2023-04-19T12:08:33.149Z,5.50
2023-04-19T12:11:03.489Z,5.45
2023-04-19T12:13:32.514Z,7.32
2023-04-19T12:16:01.635Z,5.18
2023-04-19T12:18:29.965Z,4.55
2023-04-19T12:20:59.497Z,5.05
2023-04-19T12:23:30.014Z,6.60
2023-04-19T12:25:58.103Z,4.57
2023-04-19T12:28:27.545Z,4.00
2023-04-19T12:30:55.541Z,4.15
2023-04-19T12:33:24.064Z,3.85
2023-04-19T12:35:52.110Z,6.15
2023-04-19T12:38:20.183Z,6.32
2023-04-19T12:40:48.246Z,5.20
2023-04-19T12:43:16.284Z,5.03
2023-04-19T12:45:45.682Z,3.25
2023-04-19T12:48:13.739Z,3.70
2023-04-19T12:50:41.725Z,5.57
2023-04-19T12:53:09.780Z,4.72
2023-04-19T12:55:37.766Z,3.92
2023-04-19T12:58:05.944Z,6.68
2023-04-19T13:00:34.103Z,5.15
2023-04-19T13:03:03.669Z,7.20
2023-04-19T13:05:31.890Z,3.72
2023-04-19T13:08:00.338Z,6.28
2023-04-19T13:10:28.575Z,4.57
2023-04-19T13:12:57.182Z,4.75
2023-04-19T13:15:25.413Z,6.32
2023-04-19T13:17:53.546Z,4.93
2023-04-19T13:20:23.095Z,4.65
2023-04-19T13:22:51.758Z,8.15
2023-04-19T13:25:19.926Z,5.20
2023-04-19T13:27:48.004Z,12.05
2023-04-19T13:30:16.797Z,4.55
2023-04-19T13:32:44.859Z,4.75
2023-04-19T13:35:13.001Z,6.90
2023-04-19T13:37:44.302Z,8.65
2023-04-19T13:40:19.477Z,8.52
2023-04-19T13:42:47.911Z,4.22
2023-04-19T13:45:16.005Z,2.85
2023-04-19T13:47:44.145Z,2.58
2023-04-19T13:50:13.026Z,6.53
2023-04-19T13:52:42.649Z,10.90
2023-04-19T13:55:10.885Z,8.38
2023-04-19T13:57:38.947Z,4.90
2023-04-19T14:00:08.449Z,7.03
2023-04-19T14:02:37.036Z,4.45
2023-04-19T14:05:05.748Z,6.05
2023-04-19T14:07:34.030Z,8.32
2023-04-19T14:10:03.558Z,4.03
2023-04-19T14:12:31.605Z,7.28
2023-04-19T14:14:59.719Z,5.32
2023-04-19T14:17:27.778Z,4.35
2023-04-19T14:19:56.245Z,4.20
2023-04-19T14:22:24.278Z,6.28
2023-04-19T14:24:52.286Z,6.50
2023-04-19T14:27:21.860Z,10.88
2023-04-19T14:29:49.838Z,5.43
2023-04-19T14:32:25.954Z,5.95
2023-04-19T14:34:55.845Z,5.65
2023-04-19T14:37:24.975Z,5.38
2023-04-19T14:39:53.315Z,3.92
2023-04-19T14:42:23.161Z,3.97
2023-04-19T14:44:52.762Z,6.18
2023-04-19T14:47:21.572Z,7.85
2023-04-19T14:49:50.075Z,9.23
2023-04-19T14:52:18.411Z,5.57
2023-04-19T14:54:46.490Z,8.43
2023-04-19T14:57:14.635Z,8.10
2023-04-19T14:59:44.089Z,4.45
2023-04-19T15:02:13.552Z,5.10
2023-04-19T15:04:42.232Z,6.10
2023-04-19T15:07:11.245Z,12.73
2023-04-19T15:09:40.449Z,3.00
2023-04-19T15:12:08.699Z,2.55
2023-04-19T15:14:36.929Z,3.22
2023-04-19T15:17:06.558Z,3.00
2023-04-19T15:19:34.712Z,6.70
2023-04-19T15:22:03.977Z,5.93
2023-04-19T15:24:33.217Z,7.40
2023-04-19T15:27:01.595Z,10.60
2023-04-19T15:29:29.578Z,3.30
2023-04-19T15:31:57.663Z,14.40
2023-04-19T15:34:27.083Z,7.60
2023-04-19T15:36:55.331Z,6.70
2023-04-19T15:39:23.326Z,5.75
2023-04-19T15:41:51.318Z,2.83
2023-04-19T15:44:19.681Z,4.38
2023-04-19T15:46:47.744Z,4.70
2023-04-19T15:49:16.061Z,7.63
2023-04-19T15:51:46.115Z,10.02
2023-04-19T15:54:15.139Z,4.43
2023-04-19T15:56:43.201Z,3.50
2023-04-19T15:59:11.177Z,6.43
2023-04-19T16:01:39.263Z,5.63
2023-04-19T16:04:07.560Z,4.85
2023-04-19T16:06:35.766Z,2.85
2023-04-19T16:09:06.512Z,5.50
2023-04-19T16:11:34.781Z,6.63
2023-04-19T16:14:02.935Z,6.05
2023-04-19T16:16:34.827Z,4.47
2023-04-19T16:19:02.906Z,3.20
2023-04-19T16:21:31.621Z,14.95
2023-04-19T16:24:00.761Z,5.82
2023-04-19T16:26:30.818Z,5.85
2023-04-19T16:29:00.922Z,3.92
2023-04-19T16:31:29.000Z,11.18
2023-04-19T16:33:57.024Z,6.57
2023-04-19T16:36:25.316Z,6.60
2023-04-19T16:38:53.290Z,3.70
2023-04-19T16:41:21.382Z,9.75
2023-04-19T16:43:50.801Z,6.30
2023-04-19T16:46:19.588Z,5.38
2023-04-19T16:48:47.586Z,10.63
2023-04-19T16:51:15.627Z,5.40
2023-04-19T16:53:45.467Z,7.90
2023-04-19T16:56:13.549Z,3.47
2023-04-19T16:58:41.616Z,4.45
2023-04-19T17:01:11.147Z,8.38
2023-04-19T17:03:39.350Z,5.00
2023-04-19T17:06:07.845Z,5.60
2023-04-19T17:08:37.934Z,11.88
2023-04-19T17:11:06.108Z,3.92
2023-04-19T17:13:34.102Z,5.22
2023-04-19T17:16:02.623Z,5.63
2023-04-19T17:18:32.004Z,5.85
2023-04-19T17:21:00.436Z,7.03
2023-04-19T17:23:28.465Z,3.30
2023-04-19T17:25:56.473Z,5.20
2023-04-19T17:28:24.558Z,8.80
2023-04-19T17:30:52.561Z,7.43
2023-04-19T17:33:20.657Z,11.40
2023-04-19T17:35:51.326Z,4.15
2023-04-19T17:38:19.319Z,16.83
2023-04-19T17:40:47.355Z,6.15
2023-04-19T17:43:15.408Z,9.85
2023-04-19T17:45:44.408Z,5.10
2023-04-19T17:48:13.183Z,7.50
2023-04-19T17:50:41.222Z,8.57
2023-04-19T17:53:10.601Z,6.55
2023-04-19T17:55:38.825Z,4.82
2023-04-19T17:58:06.789Z,7.45
2023-04-19T18:00:34.792Z,12.73
2023-04-19T18:03:02.931Z,7.20
2023-04-19T18:05:31.056Z,6.95
2023-04-19T18:07:59.072Z,10.02
2023-04-19T18:10:28.659Z,12.32
2023-04-19T18:12:56.699Z,10.73
2023-04-19T18:15:24.749Z,5.30
2023-04-19T18:17:52.929Z,7.07
2023-04-19T18:20:21.580Z,8.55
2023-04-19T18:22:51.122Z,8.50
2023-04-19T18:25:19.466Z,9.52
2023-04-19T18:27:49.532Z,7.82
2023-04-19T18:30:17.545Z,6.55
2023-04-19T18:32:45.592Z,7.57
2023-04-19T18:35:13.587Z,6.78
2023-04-19T18:37:41.742Z,8.75
2023-04-19T18:40:10.675Z,7.70
2023-04-19T18:42:38.745Z,8.07
2023-04-19T18:45:09.861Z,7.15
2023-04-19T18:47:38.021Z,7.45
2023-04-19T18:50:08.494Z,9.13
2023-04-19T18:52:36.776Z,9.65
2023-04-19T18:55:05.705Z,4.75
2023-04-19T18:57:35.279Z,7.95
2023-04-19T19:00:05.506Z,13.13
2023-04-19T19:02:37.118Z,10.07
2023-04-19T19:05:08.310Z,8.82
2023-04-19T19:07:37.777Z,9.93
2023-04-19T19:10:18.206Z,7.20
2023-04-19T19:12:48.946Z,9.52
2023-04-19T19:15:17.265Z,6.82
2023-04-19T19:17:49.680Z,13.73
2023-04-19T19:20:18.789Z,10.90
2023-04-19T19:22:46.851Z,14.18
2023-04-19T19:25:14.928Z,13.18
2023-04-19T19:27:58.495Z,11.15
2023-04-19T19:30:33.791Z,9.50
2023-04-19T19:33:04.877Z,10.77
2023-04-19T19:35:33.287Z,12.15
2023-04-19T19:38:01.543Z,12.18
2023-04-19T19:40:32.538Z,6.82
2023-04-19T19:43:01.016Z,16.42
2023-04-19T19:45:29.414Z,5.97
2023-04-19T19:47:59.106Z,16.52
2023-04-19T19:53:00.746Z,7.43
2023-04-19T19:55:30.009Z,5.47
2023-04-19T20:03:00.323Z,10.98
2023-04-19T20:05:30.115Z,9.75
2023-04-19T20:08:08.133Z,7.25
2023-04-19T20:10:37.330Z,6.97
2023-04-19T20:13:06.258Z,16.42
2023-04-19T20:15:34.514Z,9.77
2023-04-19T20:18:03.410Z,9.05
2023-04-19T20:20:32.959Z,13.77
2023-04-19T20:23:00.984Z,8.05
2023-04-19T20:25:31.190Z,5.18
2023-04-19T20:27:59.489Z,5.95
2023-04-19T20:30:27.754Z,9.60
2023-04-19T20:32:55.800Z,5.75
2023-04-19T20:35:24.536Z,13.02
2023-04-19T20:37:54.551Z,10.65
2023-04-19T20:40:23.016Z,7.55
2023-04-19T20:42:51.493Z,6.18
2023-04-19T20:45:20.052Z,10.55
2023-04-19T20:47:48.597Z,11.23
2023-04-19T20:50:16.603Z,6.22
2023-04-19T20:52:44.616Z,11.13
2023-04-19T20:55:14.596Z,12.30
2023-04-19T20:57:42.622Z,10.63
2023-04-19T21:00:11.860Z,8.60
2023-04-19T21:02:40.045Z,11.38
2023-04-19T21:05:08.609Z,14.45
2023-04-19T21:07:36.974Z,6.28
2023-04-19T21:10:06.863Z,7.05
2023-04-19T21:12:36.370Z,11.52
2023-04-19T21:15:05.710Z,17.35
2023-04-19T21:17:33.761Z,8.88
2023-04-19T21:20:02.865Z,7.63
2023-04-19T21:22:31.113Z,9.35
2023-04-19T21:24:59.081Z,15.18
2023-04-19T21:27:27.078Z,10.73
2023-04-19T21:29:56.428Z,13.63
2023-04-19T21:32:26.511Z,6.53
2023-04-19T21:34:54.562Z,14.10
2023-04-19T21:37:22.588Z,15.52
2023-04-19T21:39:51.105Z,12.82
2023-04-19T21:42:19.237Z,12.15
2023-04-19T21:44:47.374Z,6.65
2023-04-19T21:47:16.784Z,13.88
2023-04-19T21:49:44.791Z,12.57
2023-04-19T21:52:12.815Z,11.13
2023-04-19T21:54:40.797Z,8.15
2023-04-19T21:57:08.879Z,14.38
2023-04-19T21:59:37.590Z,16.38
2023-04-19T22:02:05.711Z,7.68
2023-04-19T22:04:36.627Z,12.23
2023-04-19T22:07:05.025Z,8.57
2023-04-19T22:09:34.104Z,7.13
2023-04-19T22:12:03.639Z,7.18
2023-04-19T22:14:31.754Z,9.93
2023-04-19T22:17:02.647Z,11.20
2023-04-19T22:19:31.607Z,19.05
2023-04-19T22:22:01.269Z,12.98
2023-04-19T22:24:29.224Z,10.18
2023-04-19T22:26:57.457Z,10.18
2023-04-19T22:29:25.562Z,10.63
2023-04-19T22:31:53.599Z,10.32
2023-04-19T22:34:21.628Z,8.65
2023-04-19T22:36:49.658Z,11.32
2023-04-19T22:39:19.218Z,11.25
2023-04-19T22:41:47.308Z,12.68
2023-04-19T22:44:15.295Z,10.18
2023-04-19T22:46:43.845Z,9.95
2023-04-19T22:49:11.824Z,7.20
2023-04-19T22:51:42.440Z,16.80
2023-04-19T22:54:10.558Z,16.75
2023-04-19T22:56:40.268Z,11.00
2023-04-19T22:59:08.590Z,7.80
2023-04-19T23:01:36.651Z,14.82
2023-04-19T23:04:04.985Z,8.10
2023-04-19T23:06:33.809Z,8.18
2023-04-19T23:09:02.121Z,9.25
2023-04-19T23:11:30.131Z,5.38
2023-04-19T23:13:59.521Z,6.90
2023-04-19T23:16:29.132Z,7.53
2023-04-19T23:18:57.110Z,6.75
2023-04-19T23:21:25.211Z,5.43
2023-04-19T23:23:53.202Z,10.82
2023-04-19T23:26:21.666Z,9.15
2023-04-19T23:28:50.796Z,11.00
2023-04-19T23:31:20.398Z,13.45
2023-04-19T23:33:48.831Z,10.48
2023-04-19T23:36:16.906Z,11.93
2023-04-19T23:38:44.891Z,11.38
2023-04-19T23:41:13.141Z,11.15
2023-04-19T23:43:41.110Z,11.25
2023-04-19T23:46:09.154Z,11.25
2023-04-19T23:48:38.559Z,14.38
2023-04-19T23:51:07.011Z,10.10
2023-04-19T23:53:35.046Z,10.60
2023-04-19T23:56:03.055Z,18.15
2023-04-19T23:58:31.040Z,10.35
